createdAt,value
2016-05-02T00:00:43.821Z,41.91
2016-05-02T00:01:43.793Z,42
2016-05-02T00:02:43.796Z,42.1
2016-05-02T00:03:43.767Z,42
2016-05-02T00:04:43.738Z,42
2016-05-02T00:05:43.913Z,42.1
2016-05-02T00:06:43.697Z,42
2016-05-02T00:07:43.684Z,42.1
2016-05-02T00:08:43.655Z,42
2016-05-02T00:09:43.643Z,42
2016-05-02T00:10:43.614Z,42
2016-05-02T00:11:43.601Z,42.39
2016-05-02T00:12:43.588Z,42.2
2016-05-02T00:13:43.559Z,42.2
2016-05-02T00:14:43.545Z,42.3
2016-05-02T00:15:43.534Z,42.2
2016-05-02T00:16:43.506Z,42.2
2016-05-02T00:17:43.476Z,42.3
2016-05-02T00:18:43.448Z,42.1
2016-05-02T00:19:43.434Z,42.3
2016-05-02T00:20:43.422Z,42.2
2016-05-02T00:21:43.236Z,42.2
2016-05-02T00:22:43.381Z,42.2
2016-05-02T00:23:43.352Z,42.2
2016-05-02T00:24:43.339Z,42.2
2016-05-02T00:25:43.155Z,42.2
2016-05-02T00:26:43.297Z,42.49
2016-05-02T00:27:43.268Z,42.49
2016-05-02T00:28:43.255Z,42.49
2016-05-02T00:29:43.087Z,42.49
2016-05-02T00:30:43.214Z,42.68
2016-05-02T00:31:43.342Z,42.68
2016-05-02T00:32:43.173Z,42.49
2016-05-02T00:33:43.144Z,42.49
2016-05-02T00:34:43.131Z,42.47
2016-05-02T00:35:43.102Z,42.58
2016-05-02T00:36:43.090Z,42.58
2016-05-02T00:37:43.062Z,42.58
2016-05-02T00:38:43.048Z,42.39
2016-05-02T00:39:43.348Z,42.49
2016-05-02T00:40:43.006Z,42.49
2016-05-02T00:41:42.994Z,42.49
2016-05-02T00:42:42.965Z,42.47
2016-05-02T00:43:42.968Z,42.56
2016-05-02T00:44:42.939Z,42.49
2016-05-02T00:45:42.911Z,42.58
2016-05-02T00:46:42.898Z,42.58
2016-05-02T00:47:43.369Z,42.37
2016-05-02T00:48:42.841Z,42.37
2016-05-02T00:49:42.828Z,42.39
2016-05-02T00:50:42.800Z,42.49
2016-05-02T00:51:42.786Z,42.77
2016-05-02T00:52:42.758Z,42.58
2016-05-02T00:53:42.745Z,42.58
2016-05-02T00:54:42.732Z,42.49
2016-05-02T00:55:43.360Z,42.39
2016-05-02T00:56:42.519Z,42.66
2016-05-02T00:57:42.661Z,42.49
2016-05-02T00:58:42.649Z,42.56
2016-05-02T00:59:42.621Z,42.58
2016-05-02T01:00:42.607Z,42.37
2016-05-02T01:01:42.438Z,42.47
2016-05-02T01:02:42.575Z,42.47
2016-05-02T01:03:42.700Z,42.56
2016-05-02T01:04:42.622Z,42.94
2016-05-02T01:05:42.654Z,42.76
2016-05-02T01:06:42.668Z,42.66
2016-05-02T01:07:42.678Z,42.85
2016-05-02T01:08:42.666Z,42.94
2016-05-02T01:09:42.669Z,42.76
2016-05-02T01:10:42.673Z,42.94
2016-05-02T01:11:42.910Z,42.76
2016-05-02T01:12:42.662Z,42.85
2016-05-02T01:13:42.638Z,42.85
2016-05-02T01:14:42.475Z,42.66
2016-05-02T01:15:42.609Z,42.66
2016-05-02T01:16:42.602Z,42.66
2016-05-02T01:17:42.578Z,42.76
2016-05-02T01:18:42.567Z,42.76
2016-05-02T01:19:42.993Z,42.85
2016-05-02T01:20:42.529Z,42.76
2016-05-02T01:21:42.518Z,42.76
2016-05-02T01:22:42.335Z,42.85
2016-05-02T01:23:42.463Z,42.76
2016-05-02T01:24:42.451Z,42.85
2016-05-02T01:25:42.440Z,42.85
2016-05-02T01:26:42.457Z,42.85
2016-05-02T01:27:42.383Z,42.85
2016-05-02T01:28:42.214Z,42.56
2016-05-02T01:29:42.358Z,42.85
2016-05-02T01:30:42.330Z,42.66
2016-05-02T01:31:42.303Z,43.04
2016-05-02T01:32:42.289Z,42.85
2016-05-02T01:33:42.261Z,43.04
2016-05-02T01:34:42.654Z,43.04
2016-05-02T01:35:42.063Z,42.94
2016-05-02T01:36:42.206Z,42.94
2016-05-02T01:37:42.037Z,42.76
2016-05-02T01:38:42.165Z,42.94
2016-05-02T01:39:42.152Z,42.85
2016-05-02T01:40:42.139Z,42.94
2016-05-02T01:41:42.110Z,43.04
2016-05-02T01:42:42.644Z,43.04
2016-05-02T01:43:42.069Z,42.76
2016-05-02T01:44:41.884Z,42.85
2016-05-02T01:45:42.027Z,42.94
2016-05-02T01:46:41.999Z,42.94
2016-05-02T01:47:41.986Z,42.94
2016-05-02T01:48:41.957Z,43.04
2016-05-02T01:49:41.944Z,42.66
2016-05-02T01:50:41.916Z,43.14
2016-05-02T01:51:41.903Z,43.33
2016-05-02T01:52:41.874Z,42.85
2016-05-02T01:53:41.846Z,43.14
2016-05-02T01:54:41.848Z,43.23
2016-05-02T01:55:41.835Z,43.14
2016-05-02T01:56:41.791Z,43.14
2016-05-02T01:57:41.779Z,43.33
2016-05-02T01:58:41.750Z,43.33
2016-05-02T01:59:41.753Z,43.14
2016-05-02T02:00:41.709Z,43.43
2016-05-02T02:01:41.554Z,43.33
2016-05-02T02:02:41.682Z,43.23
2016-05-02T02:03:41.654Z,43.43
2016-05-02T02:04:41.484Z,43.33
2016-05-02T02:05:41.612Z,43.33
2016-05-02T02:06:41.943Z,43.43
2016-05-02T02:07:41.570Z,43.52
2016-05-02T02:08:41.558Z,43.52
2016-05-02T02:09:41.530Z,43.52
2016-05-02T02:10:41.516Z,43.52
2016-05-02T02:11:41.488Z,43.23
2016-05-02T02:12:41.319Z,43.52
2016-05-02T02:13:41.447Z,43.52
2016-05-02T02:14:41.433Z,43.62
2016-05-02T02:15:41.405Z,43.52
2016-05-02T02:16:41.376Z,43.52
2016-05-02T02:17:41.363Z,43.62
2016-05-02T02:18:41.350Z,43.43
2016-05-02T02:19:41.322Z,43.62
2016-05-02T02:20:41.309Z,43.43
2016-05-02T02:21:41.280Z,43.62
2016-05-02T02:22:41.268Z,43.52
2016-05-02T02:23:41.238Z,43.52
2016-05-02T02:24:41.242Z,43.43
2016-05-02T02:25:41.202Z,43.52
2016-05-02T02:26:41.017Z,43.62
2016-05-02T02:27:41.291Z,43.62
2016-05-02T02:28:41.138Z,43.43
2016-05-02T02:29:41.125Z,43.43
2016-05-02T02:30:41.096Z,43.52
2016-05-02T02:31:41.068Z,43.43
2016-05-02T02:32:41.055Z,43.43
2016-05-02T02:33:41.042Z,43.62
2016-05-02T02:34:41.014Z,43.71
2016-05-02T02:35:41.016Z,43.62
2016-05-02T02:36:40.972Z,43.52
2016-05-02T02:37:40.975Z,43.33
2016-05-02T02:38:40.945Z,43.52
2016-05-02T02:39:40.917Z,43.62
2016-05-02T02:40:40.733Z,43.33
2016-05-02T02:41:40.876Z,43.33
2016-05-02T02:42:40.847Z,43.33
2016-05-02T02:43:40.834Z,43.52
2016-05-02T02:44:40.805Z,43.91
2016-05-02T02:45:40.777Z,43.43
2016-05-02T02:46:40.608Z,43.91
2016-05-02T02:47:40.752Z,43.71
2016-05-02T02:48:40.722Z,43.52
2016-05-02T02:49:40.554Z,43.52
2016-05-02T02:50:40.682Z,43.52
2016-05-02T02:51:40.497Z,43.6
2016-05-02T02:52:40.640Z,43.62
2016-05-02T02:53:40.627Z,43.62
2016-05-02T02:54:40.599Z,43.81
2016-05-02T02:55:40.585Z,43.71
2016-05-02T02:56:40.557Z,43.5
2016-05-02T02:57:40.387Z,43.4
2016-05-02T02:58:40.515Z,43.79
2016-05-02T02:59:40.503Z,43.71
2016-05-02T03:00:40.474Z,43.79
2016-05-02T03:01:40.461Z,43.6
2016-05-02T03:02:40.448Z,43.43
2016-05-02T03:03:40.420Z,43.79
2016-05-02T03:04:40.391Z,43.79
2016-05-02T03:05:40.379Z,43.7
2016-05-02T03:06:40.350Z,43.71
2016-05-02T03:07:40.337Z,43.62
2016-05-02T03:08:40.152Z,43.6
2016-05-02T03:09:40.295Z,43.7
2016-05-02T03:10:40.267Z,43.7
2016-05-02T03:11:40.254Z,43.7
2016-05-02T03:12:40.242Z,43.79
2016-05-02T03:13:40.212Z,43.81
2016-05-02T03:14:40.183Z,44
2016-05-02T03:15:40.170Z,43.98
2016-05-02T03:16:40.142Z,43.71
2016-05-02T03:17:40.130Z,43.71
2016-05-02T03:18:40.116Z,43.88
2016-05-02T03:19:40.088Z,43.98
2016-05-02T03:20:40.058Z,43.6
2016-05-02T03:21:40.078Z,43.98
2016-05-02T03:22:40.018Z,43.88
2016-05-02T03:23:39.849Z,43.88
2016-05-02T03:24:39.976Z,43.98
2016-05-02T03:25:39.963Z,43.88
2016-05-02T03:26:39.935Z,43.91
2016-05-02T03:27:39.921Z,43.79
2016-05-02T03:28:39.909Z,44.08
2016-05-02T03:29:39.880Z,44.08
2016-05-02T03:30:39.852Z,44.08
2016-05-02T03:31:39.838Z,44.08
2016-05-02T03:32:39.810Z,44.08
2016-05-02T03:33:39.797Z,44.08
2016-05-02T03:34:39.878Z,43.98
2016-05-02T03:35:39.756Z,43.79
2016-05-02T03:36:39.727Z,43.98
2016-05-02T03:37:39.714Z,43.88
2016-05-02T03:38:39.701Z,43.88
2016-05-02T03:39:39.673Z,43.88
2016-05-02T03:40:39.644Z,43.98
2016-05-02T03:41:39.615Z,43.98
2016-05-02T03:42:39.914Z,44.08
2016-05-02T03:43:39.589Z,43.88
2016-05-02T03:44:39.577Z,43.88
2016-05-02T03:45:39.548Z,44.08
2016-05-02T03:46:39.379Z,43.98
2016-05-02T03:47:39.506Z,44.17
2016-05-02T03:48:39.478Z,43.98
2016-05-02T03:49:39.465Z,44.27
2016-05-02T03:50:39.889Z,44.17
2016-05-02T03:51:39.424Z,44.08
2016-05-02T03:52:39.395Z,44.08
2016-05-02T03:53:39.366Z,44.08
2016-05-02T03:54:39.369Z,44.08
2016-05-02T03:55:39.185Z,43.7
2016-05-02T03:56:39.313Z,43.79
2016-05-02T03:57:39.300Z,44.08
2016-05-02T03:58:39.177Z,43.98
2016-05-02T03:59:39.258Z,43.88
2016-05-02T04:00:39.245Z,43.88
2016-05-02T04:01:39.216Z,43.98
2016-05-02T04:02:39.204Z,44.17
2016-05-02T04:03:39.175Z,44.17
2016-05-02T04:04:38.990Z,44.37
2016-05-02T04:05:39.134Z,44.37
2016-05-02T04:06:39.902Z,44.27
2016-05-02T04:07:39.107Z,44.17
2016-05-02T04:08:39.079Z,44.17
2016-05-02T04:09:39.050Z,44.08
2016-05-02T04:10:39.022Z,44.17
2016-05-02T04:11:39.009Z,44.08
2016-05-02T04:12:38.996Z,44.37
2016-05-02T04:13:38.951Z,44.46
2016-05-02T04:14:39.189Z,44.75
2016-05-02T04:15:38.942Z,44.29
2016-05-02T04:16:38.897Z,44.38
2016-05-02T04:17:38.884Z,44.38
2016-05-02T04:18:38.872Z,44
2016-05-02T04:19:38.842Z,44.2
2016-05-02T04:20:38.830Z,44.1
2016-05-02T04:21:38.802Z,43.71
2016-05-02T04:22:39.179Z,43.93
2016-05-02T04:23:38.760Z,43.62
2016-05-02T04:24:38.591Z,43.71
2016-05-02T04:25:38.718Z,43.54
2016-05-02T04:26:38.690Z,43.04
2016-05-02T04:27:38.693Z,43.23
2016-05-02T04:28:38.663Z,43.52
2016-05-02T04:29:38.776Z,43.23
2016-05-02T04:30:38.622Z,43.43
2016-05-02T04:31:38.609Z,43.04
2016-05-02T04:32:38.581Z,43.33
2016-05-02T04:33:38.568Z,43.14
2016-05-02T04:34:38.540Z,43.23
2016-05-02T04:35:38.510Z,43.04
2016-05-02T04:36:38.779Z,43.14
2016-05-02T04:37:38.829Z,43.14
2016-05-02T04:38:38.457Z,42.76
2016-05-02T04:39:38.303Z,42.76
2016-05-02T04:40:38.430Z,43.04
2016-05-02T04:41:38.417Z,43.04
2016-05-02T04:42:38.374Z,42.76
2016-05-02T04:43:38.345Z,42.85
2016-05-02T04:44:38.332Z,42.85
2016-05-02T04:45:38.866Z,42.66
2016-05-02T04:46:38.290Z,42.85
2016-05-02T04:47:38.262Z,42.94
2016-05-02T04:48:38.280Z,42.85
2016-05-02T04:49:38.236Z,42.94
2016-05-02T04:50:38.208Z,42.85
2016-05-02T04:51:38.194Z,42.66
2016-05-02T04:52:38.166Z,42.76
2016-05-02T04:53:38.841Z,42.94
2016-05-02T04:54:38.124Z,42.85
2016-05-02T04:55:38.111Z,42.76
2016-05-02T04:56:38.083Z,42.94
2016-05-02T04:57:38.070Z,42.85
2016-05-02T04:58:38.041Z,42.77
2016-05-02T04:59:38.029Z,42.87
2016-05-02T05:00:38.000Z,42.97
2016-05-02T05:01:37.987Z,42.77
2016-05-02T05:02:37.958Z,42.87
2016-05-02T05:03:37.790Z,42.58
2016-05-02T05:04:37.917Z,42.77
2016-05-02T05:05:37.748Z,42.58
2016-05-02T05:06:37.891Z,42.39
2016-05-02T05:07:37.863Z,42.68
2016-05-02T05:08:37.850Z,42.77
2016-05-02T05:09:37.962Z,41.72
2016-05-02T05:10:37.793Z,41.82
2016-05-02T05:11:37.779Z,41.43
2016-05-02T05:12:37.767Z,41.14
2016-05-02T05:13:37.738Z,41.24
2016-05-02T05:14:37.726Z,41.05
2016-05-02T05:15:37.712Z,40.95
2016-05-02T05:16:37.528Z,40.85
2016-05-02T05:17:38.109Z,40.76
2016-05-02T05:18:37.658Z,40.76
2016-05-02T05:19:37.614Z,40.76
2016-05-02T05:20:37.600Z,40.66
2016-05-02T05:21:37.588Z,40.76
2016-05-02T05:22:37.575Z,40.95
2016-05-02T05:23:37.547Z,41.05
2016-05-02T05:24:37.517Z,40.95
2016-05-02T05:25:37.505Z,40.95
2016-05-02T05:26:37.477Z,41.05
2016-05-02T05:27:37.463Z,40.95
2016-05-02T05:28:37.435Z,41.05
2016-05-02T05:29:37.422Z,40.95
2016-05-02T05:30:37.394Z,40.95
2016-05-02T05:31:37.380Z,41.05
2016-05-02T05:32:37.368Z,41.05
2016-05-02T05:33:37.354Z,41.14
2016-05-02T05:34:37.326Z,40.95
2016-05-02T05:35:37.313Z,40.95
2016-05-02T05:36:37.346Z,41.05
2016-05-02T05:37:37.256Z,41.05
2016-05-02T05:38:37.243Z,41.05
2016-05-02T05:39:37.057Z,40.95
2016-05-02T05:40:37.202Z,40.95
2016-05-02T05:41:37.173Z,40.76
2016-05-02T05:42:37.019Z,40.85
2016-05-02T05:43:37.147Z,40.85
2016-05-02T05:44:37.134Z,40.85
2016-05-02T05:45:37.121Z,41.05
2016-05-02T05:46:37.076Z,41.14
2016-05-02T05:47:37.048Z,41.05
2016-05-02T05:48:37.036Z,41.53
2016-05-02T05:49:37.007Z,41.53
2016-05-02T05:50:36.994Z,41.33
2016-05-02T05:51:36.981Z,41.62
2016-05-02T05:52:36.952Z,41.72
2016-05-02T05:53:36.924Z,41.72
2016-05-02T05:54:36.942Z,41.45
2016-05-02T05:55:36.898Z,41.26
2016-05-02T05:56:36.870Z,41.16
2016-05-02T05:57:36.856Z,41.64
2016-05-02T05:58:36.827Z,41.35
2016-05-02T05:59:36.815Z,41.06
2016-05-02T06:00:36.786Z,40.78
2016-05-02T06:01:36.789Z,40.97
2016-05-02T06:02:36.760Z,41.06
2016-05-02T06:03:36.732Z,40.88
2016-05-02T06:04:36.704Z,40.88
2016-05-02T06:05:36.706Z,40.97
2016-05-02T06:06:36.677Z,41.16
2016-05-02T06:07:36.649Z,40.97
2016-05-02T06:08:36.636Z,41.16
2016-05-02T06:09:36.608Z,41.16
2016-05-02T06:10:36.595Z,40.88
2016-05-02T06:11:36.581Z,40.58
2016-05-02T06:12:36.553Z,40.49
2016-05-02T06:13:36.540Z,40.49
2016-05-02T06:14:36.526Z,41.06
2016-05-02T06:15:36.498Z,41.16
2016-05-02T06:16:36.486Z,40.88
2016-05-02T06:17:36.457Z,41.06
2016-05-02T06:18:36.428Z,40.97
2016-05-02T06:19:36.415Z,40.97
2016-05-02T06:20:36.386Z,41.06
2016-05-02T06:21:36.374Z,40.97
2016-05-02T06:22:36.366Z,40.78
2016-05-02T06:23:36.321Z,40.66
2016-05-02T06:24:36.341Z,40.88
2016-05-02T06:25:36.296Z,40.68
2016-05-02T06:26:36.299Z,40.88
2016-05-02T06:27:36.254Z,40.85
2016-05-02T06:28:36.241Z,40.85
2016-05-02T06:29:36.213Z,40.85
2016-05-02T06:30:36.185Z,40.85
2016-05-02T06:31:36.171Z,40.85
2016-05-02T06:32:36.158Z,40.95
2016-05-02T06:33:36.146Z,41.33
2016-05-02T06:34:36.101Z,41.33
2016-05-02T06:35:36.089Z,41.24
2016-05-02T06:36:36.076Z,41.24
2016-05-02T06:37:36.047Z,41.24
2016-05-02T06:38:36.018Z,41.43
2016-05-02T06:39:36.021Z,41.53
2016-05-02T06:40:35.993Z,41.43
2016-05-02T06:41:35.965Z,41.72
2016-05-02T06:42:35.951Z,41.72
2016-05-02T06:43:35.923Z,41.82
2016-05-02T06:44:35.909Z,41.91
2016-05-02T06:45:36.084Z,41.91
2016-05-02T06:46:35.711Z,42
2016-05-02T06:47:35.840Z,42
2016-05-02T06:48:35.826Z,42.1
2016-05-02T06:49:35.798Z,42.2
2016-05-02T06:50:35.786Z,42.1
2016-05-02T06:51:36.006Z,42.3
2016-05-02T06:52:35.602Z,42.1
2016-05-02T06:53:36.089Z,42.58
2016-05-02T06:54:35.702Z,42.49
2016-05-02T06:55:35.689Z,42.49
2016-05-02T06:56:35.660Z,42.58
2016-05-02T06:57:35.647Z,42.39
2016-05-02T06:58:35.463Z,42.68
2016-05-02T06:59:35.606Z,42.49
2016-05-02T07:00:35.577Z,42.39
2016-05-02T07:01:36.158Z,42.58
2016-05-02T07:02:35.552Z,42.58
2016-05-02T07:03:35.524Z,42.68
2016-05-02T07:04:35.510Z,42.49
2016-05-02T07:05:35.482Z,42.58
2016-05-02T07:06:35.813Z,42.49
2016-05-02T07:07:35.440Z,42.87
2016-05-02T07:08:35.427Z,42.87
2016-05-02T07:09:36.102Z,42.77
2016-05-02T07:10:35.385Z,42.97
2016-05-02T07:11:35.373Z,42.77
2016-05-02T07:12:35.345Z,42.68
2016-05-02T07:13:35.315Z,42.49
2016-05-02T07:14:35.303Z,42.58
2016-05-02T07:15:35.289Z,42.49
2016-05-02T07:16:35.106Z,42.68
2016-05-02T07:17:35.389Z,42.49
2016-05-02T07:18:35.220Z,42.3
2016-05-02T07:19:35.191Z,41.82
2016-05-02T07:20:35.178Z,41.72
2016-05-02T07:21:35.306Z,41.82
2016-05-02T07:22:35.136Z,41.72
2016-05-02T07:23:35.125Z,41.82
2016-05-02T07:24:35.095Z,41.43
2016-05-02T07:25:35.380Z,41.33
2016-05-02T07:26:35.054Z,41.43
2016-05-02T07:27:35.041Z,41.53
2016-05-02T07:28:35.013Z,41.33
2016-05-02T07:29:34.999Z,41.62
2016-05-02T07:30:34.814Z,40.95
2016-05-02T07:31:34.957Z,40.85
2016-05-02T07:32:35.038Z,40.85
2016-05-02T07:33:34.916Z,40.85
2016-05-02T07:34:34.888Z,40.56
2016-05-02T07:35:34.874Z,39.89
2016-05-02T07:36:35.237Z,40.18
2016-05-02T07:37:34.832Z,40.28
2016-05-02T07:38:34.665Z,39.79
2016-05-02T07:39:34.651Z,39.99
2016-05-02T07:40:35.013Z,39.89
2016-05-02T07:41:34.782Z,39.7
2016-05-02T07:42:34.582Z,39.99
2016-05-02T07:43:34.709Z,39.79
2016-05-02T07:44:34.696Z,39.79
2016-05-02T07:45:34.512Z,39.79
2016-05-02T07:46:34.654Z,39.7
2016-05-02T07:47:34.626Z,39.61
2016-05-02T07:48:35.066Z,39.79
2016-05-02T07:49:34.584Z,39.51
2016-05-02T07:50:34.572Z,39.41
2016-05-02T07:51:34.559Z,39.31
2016-05-02T07:52:34.530Z,39.22
2016-05-02T07:53:34.533Z,39.31
2016-05-02T07:54:34.488Z,39.51
2016-05-02T07:55:34.475Z,39.51
2016-05-02T07:56:34.916Z,39.51
2016-05-02T07:57:34.419Z,39.79
2016-05-02T07:58:34.247Z,39.89
2016-05-02T07:59:34.389Z,39.51
2016-05-02T08:00:34.361Z,39.41
2016-05-02T08:01:34.333Z,39.51
2016-05-02T08:02:34.335Z,39.51
2016-05-02T08:03:34.307Z,39.7
2016-05-02T08:04:34.294Z,39.79
2016-05-02T08:05:34.265Z,39.31
2016-05-02T08:06:34.565Z,39.79
2016-05-02T08:07:34.224Z,39.61
2016-05-02T08:08:34.196Z,39.51
2016-05-02T08:09:34.183Z,39.31
2016-05-02T08:10:34.168Z,39.12
2016-05-02T08:11:34.141Z,38.74
2016-05-02T08:12:34.331Z,38.54
2016-05-02T08:13:34.115Z,38.64
2016-05-02T08:14:34.087Z,38.54
2016-05-02T08:15:34.058Z,38.54
2016-05-02T08:16:34.045Z,38.26
2016-05-02T08:17:33.875Z,38.35
2016-05-02T08:18:34.003Z,38.35
2016-05-02T08:19:33.990Z,38.16
2016-05-02T08:20:34.321Z,38.09
2016-05-02T08:21:35.436Z,38.18
2016-05-02T08:22:33.780Z,38.09
2016-05-02T08:23:33.907Z,38.09
2016-05-02T08:24:33.879Z,38.18
2016-05-02T08:25:33.866Z,37.99
2016-05-02T08:26:33.853Z,37.79
2016-05-02T08:27:33.825Z,37.99
2016-05-02T08:28:33.796Z,37.89
2016-05-02T08:29:33.799Z,37.99
2016-05-02T08:30:33.770Z,37.89
2016-05-02T08:31:33.772Z,37.89
2016-05-02T08:32:33.728Z,37.7
2016-05-02T08:33:33.544Z,37.89
2016-05-02T08:34:33.687Z,37.99
2016-05-02T08:35:33.674Z,37.89
2016-05-02T08:36:33.661Z,37.89
2016-05-02T08:37:33.616Z,37.79
2016-05-02T08:38:33.605Z,37.97
2016-05-02T08:39:33.435Z,38.09
2016-05-02T08:40:33.562Z,38.18
2016-05-02T08:41:33.549Z,37.97
2016-05-02T08:42:33.521Z,38.07
2016-05-02T08:43:33.540Z,38.09
2016-05-02T08:44:33.495Z,38.09
2016-05-02T08:45:33.467Z,38.07
2016-05-02T08:46:33.454Z,38.16
2016-05-02T08:47:33.426Z,38.37
2016-05-02T08:48:33.412Z,38.16
2016-05-02T08:49:33.384Z,38.16
2016-05-02T08:50:33.370Z,38.16
2016-05-02T08:51:34.248Z,38.35
2016-05-02T08:52:33.329Z,38.26
2016-05-02T08:53:33.317Z,38.45
2016-05-02T08:54:33.287Z,38.26
2016-05-02T08:55:33.258Z,38.26
2016-05-02T08:56:33.247Z,38.26
2016-05-02T08:57:33.234Z,38.37
2016-05-02T08:58:33.205Z,38.28
2016-05-02T08:59:33.192Z,38.28
2016-05-02T09:00:33.164Z,38.18
2016-05-02T09:01:33.150Z,38.09
2016-05-02T09:02:33.122Z,37.89
2016-05-02T09:03:33.109Z,37.99
2016-05-02T09:04:33.096Z,37.79
2016-05-02T09:05:33.067Z,37.79
2016-05-02T09:06:33.055Z,37.79
2016-05-02T09:07:33.026Z,37.79
2016-05-02T09:08:32.857Z,37.79
2016-05-02T09:09:32.828Z,37.99
2016-05-02T09:10:32.971Z,37.99
2016-05-02T09:11:32.787Z,38.09
2016-05-02T09:12:32.929Z,38.09
2016-05-02T09:13:32.917Z,38.09
2016-05-02T09:14:32.888Z,38.09
2016-05-02T09:15:32.859Z,38.28
2016-05-02T09:16:32.846Z,38.28
2016-05-02T09:17:32.834Z,38.18
2016-05-02T09:18:32.649Z,38.28
2016-05-02T09:19:32.792Z,38.37
2016-05-02T09:20:32.764Z,38.18
2016-05-02T09:21:32.751Z,38.28
2016-05-02T09:22:32.567Z,38.37
2016-05-02T09:23:32.553Z,38.37
2016-05-02T09:24:32.681Z,38.37
2016-05-02T09:25:32.667Z,38.47
2016-05-02T09:26:32.640Z,38.37
2016-05-02T09:27:32.626Z,38.66
2016-05-02T09:28:32.614Z,38.66
2016-05-02T09:29:32.586Z,38.85
2016-05-02T09:30:32.572Z,38.85
2016-05-02T09:31:32.543Z,38.74
2016-05-02T09:32:32.530Z,39.04
2016-05-02T09:33:32.503Z,38.85
2016-05-02T09:34:32.489Z,39.14
2016-05-02T09:35:32.460Z,39.14
2016-05-02T09:36:32.464Z,39.14
2016-05-02T09:37:32.435Z,39.04
2016-05-02T09:38:32.421Z,39.03
2016-05-02T09:39:32.394Z,39.14
2016-05-02T09:40:32.349Z,38.95
2016-05-02T09:41:32.335Z,39.04
2016-05-02T09:42:32.324Z,38.76
2016-05-02T09:43:32.310Z,38.76
2016-05-02T09:44:32.281Z,39.04
2016-05-02T09:45:32.269Z,38.95
2016-05-02T09:46:32.256Z,39.14
2016-05-02T09:47:32.227Z,39.14
2016-05-02T09:48:32.262Z,38.85
2016-05-02T09:49:32.185Z,38.76
2016-05-02T09:50:32.173Z,38.85
2016-05-02T09:51:32.159Z,39.04
2016-05-02T09:52:32.116Z,38.66
2016-05-02T09:53:32.103Z,39.04
2016-05-02T09:54:32.090Z,38.85
2016-05-02T09:55:32.061Z,38.85
2016-05-02T09:56:32.283Z,38.85
2016-05-02T09:57:32.019Z,38.85
2016-05-02T09:58:31.850Z,38.76
2016-05-02T09:59:31.822Z,38.47
2016-05-02T10:00:31.964Z,38.56
2016-05-02T10:01:31.936Z,38.56
2016-05-02T10:02:31.924Z,38.56
2016-05-02T10:03:31.911Z,38.37
2016-05-02T10:04:32.289Z,38.09
2016-05-02T10:05:31.869Z,37.79
2016-05-02T10:06:31.700Z,37.51
2016-05-02T10:07:31.827Z,36.64
2016-05-02T10:08:31.799Z,36.25
2016-05-02T10:09:31.803Z,36.16
2016-05-02T10:10:31.817Z,35.97
2016-05-02T10:11:31.847Z,35.99
2016-05-02T10:12:32.472Z,36.18
2016-05-02T10:13:31.893Z,35.6
2016-05-02T10:14:31.740Z,35.89
2016-05-02T10:15:31.899Z,35.52
2016-05-02T10:16:31.746Z,34.94
2016-05-02T10:17:31.889Z,34.46
2016-05-02T10:18:31.891Z,34.48
2016-05-02T10:19:31.875Z,34.77
2016-05-02T10:20:31.867Z,33.81
2016-05-02T10:21:31.861Z,33.59
2016-05-02T10:22:31.681Z,33.23
2016-05-02T10:23:31.831Z,32.34
2016-05-02T10:24:31.821Z,32.56
2016-05-02T10:25:31.639Z,32.46
2016-05-02T10:26:31.769Z,32.36
2016-05-02T10:27:31.758Z,32.36
2016-05-02T10:28:31.887Z,31.88
2016-05-02T10:29:31.720Z,31.78
2016-05-02T10:30:31.708Z,31.98
2016-05-02T10:31:31.523Z,31.88
2016-05-02T10:32:31.668Z,31.98
2016-05-02T10:33:31.499Z,32.26
2016-05-02T10:34:31.627Z,31.49
2016-05-02T10:35:31.614Z,30.82
2016-05-02T10:36:31.522Z,30.53
2016-05-02T10:37:31.417Z,30.91
2016-05-02T10:38:31.544Z,30.91
2016-05-02T10:39:31.516Z,31.3
2016-05-02T10:40:31.502Z,31.3
2016-05-02T10:41:31.490Z,31.49
2016-05-02T10:42:31.477Z,31.21
2016-05-02T10:43:31.402Z,30.55
2016-05-02T10:44:31.435Z,29.57
2016-05-02T10:45:31.407Z,29.38
2016-05-02T10:46:31.393Z,29.08
2016-05-02T10:47:31.209Z,29.08
2016-05-02T10:48:31.351Z,28.7
2016-05-02T10:49:31.355Z,28.41
2016-05-02T10:50:31.154Z,28.41
2016-05-02T10:51:31.392Z,28.51
2016-05-02T10:52:31.112Z,28.89
2016-05-02T10:53:31.240Z,28.7
2016-05-02T10:54:31.243Z,29
2016-05-02T10:55:31.214Z,28.99
2016-05-02T10:56:31.201Z,28.61
2016-05-02T10:57:31.173Z,28.99
2016-05-02T10:58:31.161Z,28.51
2016-05-02T10:59:31.585Z,28.13
2016-05-02T11:00:30.962Z,28.51
2016-05-02T11:01:30.950Z,27.06
2016-05-02T11:02:31.092Z,28.3
2016-05-02T11:03:31.064Z,27.72
2016-05-02T11:04:31.052Z,26.76
2016-05-02T11:05:31.023Z,25.52
2016-05-02T11:06:31.417Z,24.55
2016-05-02T11:07:31.591Z,25.32
2016-05-02T11:08:30.969Z,25.12
2016-05-02T11:09:30.955Z,24.65
2016-05-02T11:10:30.927Z,24.45
2016-05-02T11:11:30.741Z,24.85
2016-05-02T11:12:30.744Z,24.18
2016-05-02T11:13:30.873Z,23.68
2016-05-02T11:14:30.844Z,24.08
2016-05-02T11:15:30.832Z,23.87
2016-05-02T11:16:30.802Z,23.87
2016-05-02T11:17:30.790Z,24.74
2016-05-02T11:18:30.777Z,25.03
2016-05-02T11:19:30.748Z,24.93
2016-05-02T11:20:30.735Z,25.13
2016-05-02T11:21:31.144Z,25.42
2016-05-02T11:22:30.693Z,25.7
2016-05-02T11:23:30.860Z,25.71
2016-05-02T11:24:30.645Z,25.52
2016-05-02T11:25:30.476Z,26.39
2016-05-02T11:26:30.603Z,25.23
2016-05-02T11:27:30.590Z,26
2016-05-02T11:28:30.561Z,25.13
2016-05-02T11:29:30.548Z,25.99
2016-05-02T11:30:30.536Z,25.62
2016-05-02T11:31:30.850Z,25.33
2016-05-02T11:32:30.510Z,25.52
2016-05-02T11:33:30.465Z,25.42
2016-05-02T11:34:30.453Z,25.51
2016-05-02T11:35:30.424Z,25.71
2016-05-02T11:36:30.255Z,25.43
2016-05-02T11:37:30.398Z,25.43
2016-05-02T11:38:30.386Z,26.1
2016-05-02T11:39:30.200Z,25.23
2016-05-02T11:40:30.188Z,25.43
2016-05-02T11:41:30.159Z,24.95
2016-05-02T11:42:30.286Z,25.43
2016-05-02T11:43:30.273Z,25.13
2016-05-02T11:44:30.261Z,25.81
2016-05-02T11:45:30.247Z,26.1
2016-05-02T11:46:30.219Z,26.59
2016-05-02T11:47:30.191Z,25.71
2016-05-02T11:48:30.177Z,26.5
2016-05-02T11:49:30.165Z,28.03
2016-05-02T11:50:30.136Z,28.4
2016-05-02T11:51:30.138Z,28.59
2016-05-02T11:52:30.095Z,27.62
2016-05-02T11:53:30.082Z,26.86
2016-05-02T11:54:30.068Z,27.82
2016-05-02T11:55:30.040Z,27.82
2016-05-02T11:56:30.027Z,24.74
2016-05-02T11:57:30.014Z,25.03
2016-05-02T11:58:29.986Z,27.24
2016-05-02T11:59:29.973Z,24.93
2016-05-02T12:00:29.945Z,26.95
2016-05-02T12:01:29.931Z,28.3
2016-05-02T12:02:29.918Z,28.78
2016-05-02T12:03:29.906Z,29.07
2016-05-02T12:04:29.893Z,28.69
2016-05-02T12:05:29.864Z,29.07
2016-05-02T12:06:30.929Z,29.27
2016-05-02T12:07:29.823Z,29.17
2016-05-02T12:08:29.826Z,29.27
2016-05-02T12:09:29.781Z,30.04
2016-05-02T12:10:29.784Z,29.74
2016-05-02T12:11:29.755Z,29.74
2016-05-02T12:12:29.789Z,29.84
2016-05-02T12:13:29.730Z,29.84
2016-05-02T12:14:29.701Z,29.74
2016-05-02T12:15:29.703Z,29.94
2016-05-02T12:16:29.674Z,29.46
2016-05-02T12:17:29.646Z,30.05
2016-05-02T12:18:29.633Z,29.74
2016-05-02T12:19:29.636Z,30.04
2016-05-02T12:20:29.608Z,28.99
2016-05-02T12:21:29.579Z,30.15
2016-05-02T12:22:29.551Z,30.04
2016-05-02T12:23:29.537Z,29.84
2016-05-02T12:24:29.524Z,29.94
2016-05-02T12:25:29.511Z,30.24
2016-05-02T12:26:29.499Z,30.61
2016-05-02T12:27:29.470Z,30.63
2016-05-02T12:28:29.442Z,30.52
2016-05-02T12:29:29.428Z,30.42
2016-05-02T12:30:29.431Z,30.63
2016-05-02T12:31:29.403Z,30.82
2016-05-02T12:32:29.389Z,30.82
2016-05-02T12:33:29.377Z,30.05
2016-05-02T12:34:29.192Z,30.34
2016-05-02T12:35:29.335Z,30.61
2016-05-02T12:36:30.057Z,30.34
2016-05-02T12:37:29.309Z,30.82
2016-05-02T12:38:29.297Z,30.82
2016-05-02T12:39:29.268Z,30.15
2016-05-02T12:40:29.239Z,30.53
2016-05-02T12:41:29.070Z,30.05
2016-05-02T12:42:29.229Z,30.82
2016-05-02T12:43:29.044Z,30.34
2016-05-02T12:44:29.172Z,30.43
2016-05-02T12:45:29.159Z,31.4
2016-05-02T12:46:29.005Z,30.82
2016-05-02T12:47:29.133Z,30.73
2016-05-02T12:48:29.120Z,30.82
2016-05-02T12:49:29.092Z,30.91
2016-05-02T12:50:29.079Z,31.01
2016-05-02T12:51:29.050Z,31.3
2016-05-02T12:52:29.038Z,31.21
2016-05-02T12:53:29.024Z,31.4
2016-05-02T12:54:28.996Z,31.4
2016-05-02T12:55:28.982Z,31.3